createdAt,value
2022-09-29T00:43:59.307Z,51.19
2022-09-29T00:50:18.720Z,50.54
2022-09-29T00:56:26.162Z,50.34
2022-09-29T01:15:11.988Z,49.39
2022-09-29T01:21:01.823Z,49.02
2022-09-29T01:47:35.092Z,52.29
2022-09-29T02:20:45.391Z,53.30
2022-09-29T02:26:37.347Z,53.76
2022-09-29T02:32:35.217Z,53.92
2022-09-29T02:45:26.063Z,54.61
2022-09-29T02:51:03.022Z,54.74
2022-09-29T03:15:01.223Z,55.48
2022-09-29T03:20:55.798Z,55.91
2022-09-29T03:28:16.295Z,55.90
2022-09-29T03:32:41.172Z,56.27
2022-09-29T03:50:05.793Z,57.49
2022-09-29T03:56:03.758Z,57.52
2022-09-29T04:07:58.417Z,58.48
2022-09-29T04:25:44.655Z,59.95
2022-09-29T04:48:41.570Z,59.38
2022-09-29T04:59:54.234Z,58.56
2022-09-29T05:11:28.203Z,57.59
2022-09-29T05:42:33.267Z,54.34
2022-09-29T05:55:53.189Z,52.83
2022-09-29T11:21:43.201Z,25.27
2022-09-29T11:45:26.958Z,26.44
2022-09-29T11:51:29.894Z,26.92
2022-09-29T11:57:11.565Z,27.27
2022-09-29T12:02:56.052Z,27.46
2022-09-29T12:08:04.373Z,27.41
2022-09-29T12:13:19.040Z,26.97
2022-09-29T12:19:21.864Z,27.85
2022-09-29T12:24:39.121Z,28.48
2022-09-29T12:29:48.226Z,29.06
2022-09-29T12:35:14.730Z,28.10
2022-09-29T12:46:28.712Z,29.09
2022-09-29T12:52:01.921Z,29.11
2022-09-29T12:57:14.843Z,29.20
2022-09-29T13:09:20.429Z,28.51
2022-09-29T13:15:12.710Z,29.42
2022-09-29T13:20:44.258Z,29.76
2022-09-29T13:26:19.101Z,29.53
2022-09-29T13:31:24.134Z,29.81
2022-09-29T13:36:28.238Z,29.70
2022-09-29T13:41:46.772Z,29.63
2022-09-29T13:46:45.268Z,29.12
2022-09-29T14:04:10.565Z,29.03
2022-09-29T14:15:00.344Z,29.46
2022-09-29T14:20:25.210Z,30.33
2022-09-29T14:25:57.061Z,30.68
2022-09-29T14:31:05.871Z,31.06
2022-09-29T14:36:13.646Z,31.86
2022-09-29T14:41:27.383Z,31.97
2022-09-29T14:47:28.183Z,31.45
2022-09-29T14:52:46.973Z,31.90
2022-09-29T14:58:35.454Z,31.04
2022-09-29T15:15:39.757Z,30.95
2022-09-29T15:20:59.081Z,31.71
2022-09-29T15:26:02.565Z,31.64
2022-09-29T15:31:15.701Z,31.78
2022-09-29T15:36:34.015Z,32.00
2022-09-29T15:41:43.755Z,32.39
2022-09-29T15:46:48.430Z,32.49
2022-09-29T15:58:47.694Z,33.36
2022-09-29T16:04:27.338Z,33.95
2022-09-29T16:15:36.862Z,34.00
2022-09-29T16:20:44.135Z,34.71
2022-09-29T16:26:37.795Z,34.93
2022-09-29T16:31:39.616Z,34.91
2022-09-29T16:36:38.727Z,35.71
2022-09-29T16:42:23.493Z,35.88
2022-09-29T16:47:29.960Z,36.43
2022-09-29T16:53:16.215Z,37.19
2022-09-29T16:58:14.614Z,36.99
2022-09-29T17:03:14.345Z,37.49
2022-09-29T17:08:23.280Z,37.81
2022-09-29T17:13:27.591Z,38.17
2022-09-29T17:18:30.026Z,38.48
2022-09-29T17:23:29.533Z,39.01
2022-09-29T17:34:23.394Z,40.16
2022-09-29T17:41:04.600Z,40.71
2022-09-29T17:46:46.302Z,41.33
2022-09-29T17:52:22.004Z,41.51
2022-09-29T17:57:32.035Z,42.29
2022-09-29T18:08:13.822Z,42.81
2022-09-29T18:13:14.048Z,42.97
2022-09-29T18:18:16.792Z,43.57
2022-09-29T18:23:47.002Z,43.68
2022-09-29T18:28:47.998Z,44.11
2022-09-29T18:33:57.313Z,44.62
2022-09-29T18:39:06.082Z,45.56
2022-09-29T18:44:29.113Z,45.59
2022-09-29T18:49:26.435Z,46.18
2022-09-29T18:54:48.903Z,46.33
2022-09-29T18:59:48.555Z,46.49
2022-09-29T19:04:49.560Z,46.86
2022-09-29T19:09:56.651Z,47.00
2022-09-29T19:14:59.662Z,46.95
2022-09-29T19:20:03.587Z,46.80
2022-09-29T19:25:04.659Z,46.81
2022-09-29T19:30:05.096Z,46.78
2022-09-29T19:35:08.983Z,47.07
2022-09-29T19:40:13.351Z,47.09
2022-09-29T19:45:14.679Z,47.34
2022-09-29T19:50:30.379Z,47.62
2022-09-29T19:55:28.898Z,47.95
2022-09-29T20:00:59.167Z,48.13
2022-09-29T20:06:22.006Z,49.00
2022-09-29T20:11:33.265Z,49.21
2022-09-29T20:16:32.997Z,49.13
2022-09-29T20:21:32.271Z,49.46
2022-09-29T20:26:40.893Z,49.76
2022-09-29T20:31:51.126Z,50.35
2022-09-29T20:36:53.570Z,50.43
2022-09-29T20:42:05.064Z,50.69
2022-09-29T20:47:40.116Z,50.99
2022-09-29T20:52:49.270Z,51.01
2022-09-29T20:57:57.441Z,51.43
2022-09-29T21:02:55.153Z,51.52
2022-09-29T21:08:41.925Z,51.28
2022-09-29T21:13:46.862Z,51.34
2022-09-29T21:30:41.945Z,51.36
2022-09-29T21:41:20.214Z,51.90
2022-09-29T21:52:43.779Z,52.13
2022-09-29T21:57:45.217Z,51.68
2022-09-29T22:02:47.307Z,51.67
2022-09-29T22:08:10.098Z,51.44
2022-09-29T22:13:09.844Z,52.07
2022-09-29T22:18:07.621Z,51.83
2022-09-29T22:23:04.678Z,51.68
2022-09-29T22:28:09.926Z,52.05
2022-09-29T22:33:09.738Z,52.06
2022-09-29T22:38:08.184Z,52.24
2022-09-29T22:43:44.575Z,52.38
2022-09-29T22:48:42.521Z,52.52
2022-09-29T22:53:39.651Z,52.77
2022-09-29T22:58:39.143Z,53.14
2022-09-29T23:03:36.744Z,53.10
2022-09-29T23:08:36.322Z,53.11
2022-09-29T23:13:36.232Z,53.27
2022-09-29T23:18:34.332Z,53.46
2022-09-29T23:23:32.626Z,53.22
2022-09-29T23:28:32.887Z,52.93
2022-09-29T23:33:30.756Z,53.17
2022-09-29T23:38:46.160Z,53.39
2022-09-29T23:43:44.371Z,53.45
2022-09-29T23:48:41.477Z,53.35
2022-09-29T23:53:38.544Z,53.73
2022-09-29T23:58:48.814Z,53.69
